IBS1672 LEPA-LEMG
Flight info
| Callsign | IBS1672 |
|---|---|
| Flight time | 1h 22m |
| Altitude | 35000 |
| Route | BAVER M603 ALT N851 UNTOS/N0460F320 N865 VIBAS |
| Aircraft | A21N/M-SDE2E3FGHIRWXY/LB1 |
Departure
| Time | 2026-05-05 17:31 |
|---|---|
| Airport | Palma de Mallorca Airport (LEPA) |
Arrival
| Time | 2026-05-05 18:54 |
|---|---|
| Airport | Málaga-Costa del Sol Airport (LEMG) |
| Time | Latitude | Longitude | Altitude | Speed | Heading |
|---|---|---|---|---|---|
| 2026-05-05 16:48 | 39.55055 | 2.73691 | 44 ft | 0 kts | 239° |
| 2026-05-05 16:58 | 39.55055 | 2.73692 | 44 ft | 0 kts | 239° |
| 2026-05-05 17:09 | 39.55055 | 2.73693 | 44 ft | 0 kts | 239° |
| 2026-05-05 17:09 | 39.55056 | 2.73693 | 44 ft | 0 kts | 239° |
| 2026-05-05 17:16 | 39.55067 | 2.73720 | 41 ft | 4 kts | 243° |
| 2026-05-05 17:17 | 39.55078 | 2.73752 | 41 ft | 4 kts | 250° |
| 2026-05-05 17:17 | 39.55085 | 2.73785 | 40 ft | 4 kts | 266° |
| 2026-05-05 17:17 | 39.55082 | 2.73815 | 39 ft | 4 kts | 313° |
| 2026-05-05 17:17 | 39.55077 | 2.73821 | 38 ft | 1 kts | 329° |
| 2026-05-05 17:19 | 39.55076 | 2.73821 | 38 ft | 0 kts | 329° |
| 2026-05-05 17:24 | 39.55089 | 2.73811 | 44 ft | 5 kts | 329° |
| 2026-05-05 17:24 | 39.55131 | 2.73779 | 44 ft | 9 kts | 328° |
| 2026-05-05 17:24 | 39.55185 | 2.73818 | 44 ft | 10 kts | 25° |
| 2026-05-05 17:25 | 39.55251 | 2.73789 | 44 ft | 12 kts | 329° |
| 2026-05-05 17:25 | 39.55303 | 2.73750 | 44 ft | 13 kts | 330° |
| 2026-05-05 17:25 | 39.55418 | 2.73659 | 44 ft | 16 kts | 328° |
| 2026-05-05 17:25 | 39.55517 | 2.73581 | 44 ft | 17 kts | 330° |
| 2026-05-05 17:26 | 39.55622 | 2.73511 | 43 ft | 10 kts | 21° |
| 2026-05-05 17:26 | 39.55686 | 2.73565 | 44 ft | 12 kts | 58° |
| 2026-05-05 17:26 | 39.55734 | 2.73668 | 44 ft | 14 kts | 58° |
| 2026-05-05 17:26 | 39.55790 | 2.73785 | 44 ft | 16 kts | 58° |
| 2026-05-05 17:27 | 39.55850 | 2.73914 | 44 ft | 18 kts | 58° |
| 2026-05-05 17:27 | 39.55918 | 2.74056 | 44 ft | 19 kts | 58° |
| 2026-05-05 17:27 | 39.55991 | 2.74211 | 44 ft | 21 kts | 58° |
| 2026-05-05 17:27 | 39.56069 | 2.74378 | 44 ft | 22 kts | 58° |
| 2026-05-05 17:28 | 39.56127 | 2.74454 | 44 ft | 6 kts | 17° |
| 2026-05-05 17:28 | 39.56140 | 2.74455 | 44 ft | 0 kts | 353° |
| 2026-05-05 17:29 | 39.56143 | 2.74455 | 44 ft | 2 kts | 352° |
| 2026-05-05 17:29 | 39.56166 | 2.74446 | 44 ft | 5 kts | 342° |
| 2026-05-05 17:29 | 39.56211 | 2.74415 | 42 ft | 9 kts | 328° |
| 2026-05-05 17:29 | 39.56260 | 2.74355 | 44 ft | 11 kts | 286° |
| 2026-05-05 17:30 | 39.56226 | 2.74261 | 44 ft | 13 kts | 236° |
| 2026-05-05 17:30 | 39.56213 | 2.74235 | 44 ft | 0 kts | 236° |
| 2026-05-05 17:31 | 39.56185 | 2.74181 | 44 ft | 28 kts | 236° |
| 2026-05-05 17:31 | 39.55918 | 2.73614 | 44 ft | 122 kts | 238° |
| 2026-05-05 17:31 | 39.55317 | 2.72352 | 269 ft | 197 kts | 237° |
| 2026-05-05 17:31 | 39.54534 | 2.70712 | 895 ft | 223 kts | 239° |
| 2026-05-05 17:32 | 39.53703 | 2.68890 | 1488 ft | 242 kts | 240° |
| 2026-05-05 17:32 | 39.52877 | 2.67026 | 2519 ft | 235 kts | 242° |
| 2026-05-05 17:32 | 39.52093 | 2.65219 | 3585 ft | 232 kts | 243° |
| 2026-05-05 17:32 | 39.51273 | 2.63304 | 3980 ft | 248 kts | 243° |
| 2026-05-05 17:33 | 39.50415 | 2.61354 | 4025 ft | 249 kts | 240° |
| 2026-05-05 17:33 | 39.49355 | 2.59565 | 4298 ft | 249 kts | 233° |
| 2026-05-05 17:33 | 39.48272 | 2.57798 | 5150 ft | 252 kts | 235° |
| 2026-05-05 17:33 | 39.47233 | 2.55988 | 6086 ft | 254 kts | 236° |
| 2026-05-05 17:34 | 39.46206 | 2.54104 | 6988 ft | 257 kts | 237° |
| 2026-05-05 17:34 | 39.45195 | 2.52189 | 7902 ft | 259 kts | 238° |
| 2026-05-05 17:34 | 39.44189 | 2.50234 | 8800 ft | 261 kts | 238° |
| 2026-05-05 17:34 | 39.43185 | 2.48266 | 9702 ft | 263 kts | 237° |
| 2026-05-05 17:35 | 39.42188 | 2.46298 | 10520 ft | 264 kts | 237° |
| 2026-05-05 17:35 | 39.41186 | 2.44312 | 11212 ft | 262 kts | 237° |
| 2026-05-05 17:35 | 39.40188 | 2.42330 | 11623 ft | 263 kts | 237° |
| 2026-05-05 17:35 | 39.39197 | 2.40362 | 11799 ft | 264 kts | 237° |
| 2026-05-05 17:36 | 39.38197 | 2.38374 | 11875 ft | 264 kts | 237° |
| 2026-05-05 17:36 | 39.37196 | 2.36386 | 11888 ft | 263 kts | 237° |
| 2026-05-05 17:36 | 39.36198 | 2.34403 | 12223 ft | 263 kts | 237° |
| 2026-05-05 17:36 | 39.35197 | 2.32415 | 12874 ft | 264 kts | 237° |
| 2026-05-05 17:37 | 39.34190 | 2.30419 | 13592 ft | 267 kts | 237° |
| 2026-05-05 17:37 | 39.33171 | 2.28399 | 14308 ft | 269 kts | 237° |
| 2026-05-05 17:37 | 39.32154 | 2.26384 | 14999 ft | 272 kts | 237° |
| 2026-05-05 17:37 | 39.31113 | 2.24320 | 15728 ft | 274 kts | 238° |
| 2026-05-05 17:38 | 39.30064 | 2.22245 | 16453 ft | 276 kts | 238° |
| 2026-05-05 17:38 | 39.29009 | 2.20156 | 17176 ft | 278 kts | 238° |
| 2026-05-05 17:38 | 39.27945 | 2.18053 | 17899 ft | 281 kts | 238° |
| 2026-05-05 17:38 | 39.26883 | 2.15955 | 18547 ft | 283 kts | 238° |
| 2026-05-05 17:39 | 39.25801 | 2.13818 | 19164 ft | 285 kts | 238° |
| 2026-05-05 17:39 | 39.24710 | 2.11665 | 19770 ft | 287 kts | 238° |
| 2026-05-05 17:39 | 39.23621 | 2.09520 | 20361 ft | 289 kts | 238° |
| 2026-05-05 17:39 | 39.22513 | 2.07337 | 20951 ft | 292 kts | 238° |
| 2026-05-05 17:40 | 39.21395 | 2.05135 | 21551 ft | 294 kts | 238° |
| 2026-05-05 17:40 | 39.20269 | 2.02919 | 22126 ft | 296 kts | 238° |
| 2026-05-05 17:40 | 39.19149 | 2.00718 | 22694 ft | 299 kts | 238° |
| 2026-05-05 17:40 | 39.18002 | 1.98465 | 23251 ft | 301 kts | 238° |
| 2026-05-05 17:41 | 39.16844 | 1.96191 | 23756 ft | 304 kts | 238° |
| 2026-05-05 17:41 | 39.15765 | 1.93826 | 24232 ft | 305 kts | 244° |
| 2026-05-05 17:41 | 39.15014 | 1.91272 | 24498 ft | 315 kts | 252° |
| 2026-05-05 17:41 | 39.14415 | 1.88502 | 24680 ft | 327 kts | 254° |
| 2026-05-05 17:42 | 39.13814 | 1.85612 | 24823 ft | 339 kts | 254° |
| 2026-05-05 17:42 | 39.13185 | 1.82620 | 24957 ft | 351 kts | 254° |
| 2026-05-05 17:42 | 39.12532 | 1.79532 | 25104 ft | 362 kts | 254° |
| 2026-05-05 17:42 | 39.11861 | 1.76374 | 25421 ft | 368 kts | 254° |
| 2026-05-05 17:43 | 39.11190 | 1.73224 | 25838 ft | 370 kts | 253° |
| 2026-05-05 17:43 | 39.10503 | 1.70019 | 26235 ft | 373 kts | 253° |
| 2026-05-05 17:43 | 39.09808 | 1.66777 | 26651 ft | 375 kts | 253° |
| 2026-05-05 17:43 | 39.09109 | 1.63526 | 27073 ft | 378 kts | 253° |
| 2026-05-05 17:44 | 39.08403 | 1.60251 | 27500 ft | 380 kts | 253° |
| 2026-05-05 17:44 | 39.07692 | 1.56959 | 27929 ft | 382 kts | 253° |
| 2026-05-05 17:44 | 39.06986 | 1.53696 | 28336 ft | 384 kts | 253° |
| 2026-05-05 17:44 | 39.06266 | 1.50374 | 28778 ft | 385 kts | 253° |
| 2026-05-05 17:45 | 39.05544 | 1.47042 | 29195 ft | 387 kts | 253° |
| 2026-05-05 17:45 | 39.04816 | 1.43686 | 29597 ft | 388 kts | 253° |
| 2026-05-05 17:45 | 39.04090 | 1.40342 | 30042 ft | 388 kts | 253° |
| 2026-05-05 17:45 | 39.03362 | 1.37001 | 30494 ft | 386 kts | 253° |
| 2026-05-05 17:46 | 39.02649 | 1.33727 | 30918 ft | 384 kts | 253° |
| 2026-05-05 17:46 | 39.01928 | 1.30429 | 31340 ft | 382 kts | 253° |
| 2026-05-05 17:46 | 39.01192 | 1.27137 | 31740 ft | 381 kts | 251° |
| 2026-05-05 17:46 | 39.00153 | 1.24006 | 32111 ft | 379 kts | 244° |
| 2026-05-05 17:47 | 38.98973 | 1.21014 | 32486 ft | 378 kts | 243° |
| 2026-05-05 17:47 | 38.97769 | 1.18009 | 32847 ft | 376 kts | 243° |
| 2026-05-05 17:47 | 38.96573 | 1.15010 | 33215 ft | 375 kts | 243° |
| 2026-05-05 17:47 | 38.95400 | 1.12051 | 33587 ft | 373 kts | 244° |
| 2026-05-05 17:48 | 38.94223 | 1.09078 | 33942 ft | 372 kts | 244° |
| 2026-05-05 17:48 | 38.93051 | 1.06118 | 34207 ft | 371 kts | 244° |
| 2026-05-05 17:48 | 38.91880 | 1.03159 | 34442 ft | 371 kts | 244° |
| 2026-05-05 17:48 | 38.90707 | 1.00195 | 34666 ft | 371 kts | 244° |
| 2026-05-05 17:49 | 38.89549 | 0.97272 | 34866 ft | 372 kts | 244° |
| 2026-05-05 17:49 | 38.87166 | 0.91270 | 34895 ft | 382 kts | 244° |
| 2026-05-05 17:50 | 38.84729 | 0.85139 | 34885 ft | 392 kts | 244° |
| 2026-05-05 17:50 | 38.82219 | 0.78841 | 34881 ft | 399 kts | 244° |
| 2026-05-05 17:51 | 38.79684 | 0.72491 | 34886 ft | 398 kts | 244° |
| 2026-05-05 17:51 | 38.77153 | 0.66165 | 34882 ft | 398 kts | 244° |
| 2026-05-05 17:52 | 38.74634 | 0.59884 | 34879 ft | 398 kts | 244° |
| 2026-05-05 17:52 | 38.72093 | 0.53558 | 34881 ft | 398 kts | 244° |
| 2026-05-05 17:53 | 38.69567 | 0.47287 | 34880 ft | 398 kts | 244° |
| 2026-05-05 17:53 | 38.67022 | 0.40974 | 34873 ft | 398 kts | 244° |
| 2026-05-05 17:54 | 38.64473 | 0.34670 | 34876 ft | 399 kts | 244° |
| 2026-05-05 17:54 | 38.61931 | 0.28393 | 34868 ft | 399 kts | 244° |
| 2026-05-05 17:55 | 38.59366 | 0.22076 | 34875 ft | 399 kts | 244° |
| 2026-05-05 17:55 | 38.56814 | 0.15801 | 34874 ft | 399 kts | 244° |
| 2026-05-05 17:56 | 38.54247 | 0.09503 | 34878 ft | 399 kts | 244° |
| 2026-05-05 17:56 | 38.51675 | 0.03202 | 34878 ft | 399 kts | 244° |
| 2026-05-05 17:57 | 38.49106 | -0.03079 | 34888 ft | 399 kts | 244° |
| 2026-05-05 17:57 | 38.46542 | -0.09339 | 34895 ft | 400 kts | 244° |
| 2026-05-05 17:58 | 38.43958 | -0.15634 | 34890 ft | 400 kts | 244° |
| 2026-05-05 17:58 | 38.42054 | -0.20262 | 34887 ft | 400 kts | 244° |
| 2026-05-05 17:59 | 38.39478 | -0.26508 | 34896 ft | 400 kts | 244° |
| 2026-05-05 17:59 | 38.36885 | -0.32785 | 34899 ft | 400 kts | 244° |
| 2026-05-05 18:00 | 38.34290 | -0.39052 | 34910 ft | 400 kts | 244° |
| 2026-05-05 18:00 | 38.31701 | -0.45294 | 34906 ft | 400 kts | 244° |
| 2026-05-05 18:01 | 38.29096 | -0.51563 | 34928 ft | 400 kts | 244° |
| 2026-05-05 18:01 | 38.26541 | -0.57824 | 35091 ft | 400 kts | 246° |
| 2026-05-05 18:02 | 38.24213 | -0.64264 | 35264 ft | 400 kts | 246° |
| 2026-05-05 18:02 | 38.21896 | -0.70703 | 35432 ft | 400 kts | 246° |
| 2026-05-05 18:03 | 38.19583 | -0.77104 | 35579 ft | 400 kts | 246° |
| 2026-05-05 18:03 | 38.17243 | -0.83563 | 35644 ft | 402 kts | 246° |
| 2026-05-05 18:04 | 38.14904 | -0.90004 | 35754 ft | 403 kts | 246° |
| 2026-05-05 18:04 | 38.12548 | -0.96482 | 35887 ft | 403 kts | 246° |
| 2026-05-05 18:05 | 38.10208 | -1.02906 | 36018 ft | 403 kts | 246° |
| 2026-05-05 18:05 | 38.07847 | -1.09369 | 36130 ft | 403 kts | 246° |
| 2026-05-05 18:06 | 38.05883 | -1.14731 | 36227 ft | 402 kts | 246° |
| 2026-05-05 18:06 | 38.03518 | -1.21178 | 36316 ft | 403 kts | 246° |
| 2026-05-05 18:07 | 38.01161 | -1.27585 | 36457 ft | 402 kts | 246° |
| 2026-05-05 18:07 | 37.99979 | -1.30797 | 36584 ft | 400 kts | 246° |
| 2026-05-05 18:07 | 37.98802 | -1.33991 | 36732 ft | 399 kts | 246° |
| 2026-05-05 18:07 | 37.97627 | -1.37175 | 36879 ft | 398 kts | 246° |
| 2026-05-05 18:08 | 37.96450 | -1.40365 | 36913 ft | 399 kts | 246° |
| 2026-05-05 18:08 | 37.94095 | -1.46731 | 36873 ft | 402 kts | 246° |
| 2026-05-05 18:09 | 37.91704 | -1.53184 | 36895 ft | 403 kts | 246° |
| 2026-05-05 18:09 | 37.89323 | -1.59596 | 36887 ft | 404 kts | 246° |
| 2026-05-05 18:10 | 37.86936 | -1.66013 | 36891 ft | 404 kts | 246° |
| 2026-05-05 18:10 | 37.84534 | -1.72453 | 36895 ft | 404 kts | 246° |
| 2026-05-05 18:11 | 37.82137 | -1.78867 | 36895 ft | 404 kts | 246° |
| 2026-05-05 18:11 | 37.79725 | -1.85303 | 36905 ft | 404 kts | 246° |
| 2026-05-05 18:12 | 37.77307 | -1.91742 | 36912 ft | 405 kts | 246° |
| 2026-05-05 18:12 | 37.74900 | -1.98144 | 36900 ft | 404 kts | 246° |
| 2026-05-05 18:13 | 37.72480 | -2.04564 | 36913 ft | 404 kts | 246° |
| 2026-05-05 18:13 | 37.70056 | -2.10983 | 36909 ft | 405 kts | 246° |
| 2026-05-05 18:14 | 37.67642 | -2.17361 | 36907 ft | 404 kts | 246° |
| 2026-05-05 18:14 | 37.65212 | -2.23767 | 36943 ft | 405 kts | 246° |
| 2026-05-05 18:15 | 37.62788 | -2.30144 | 36952 ft | 404 kts | 246° |
| 2026-05-05 18:15 | 37.60350 | -2.36545 | 36926 ft | 404 kts | 246° |
| 2026-05-05 18:16 | 37.57920 | -2.42910 | 36929 ft | 404 kts | 246° |
| 2026-05-05 18:16 | 37.55474 | -2.49308 | 36939 ft | 404 kts | 246° |
| 2026-05-05 18:17 | 37.53025 | -2.55696 | 36941 ft | 404 kts | 246° |
| 2026-05-05 18:17 | 37.50588 | -2.62046 | 36944 ft | 404 kts | 246° |
| 2026-05-05 18:18 | 37.48129 | -2.68437 | 36944 ft | 405 kts | 246° |
| 2026-05-05 18:18 | 37.45677 | -2.74795 | 36939 ft | 406 kts | 246° |
| 2026-05-05 18:19 | 37.43200 | -2.81204 | 36931 ft | 407 kts | 246° |
| 2026-05-05 18:19 | 37.40724 | -2.87599 | 36940 ft | 408 kts | 245° |
| 2026-05-05 18:20 | 37.38229 | -2.94029 | 36950 ft | 407 kts | 245° |
| 2026-05-05 18:20 | 37.35749 | -3.00408 | 36950 ft | 408 kts | 245° |
| 2026-05-05 18:21 | 37.33268 | -3.06777 | 36970 ft | 407 kts | 245° |
| 2026-05-05 18:21 | 37.30769 | -3.13175 | 36961 ft | 407 kts | 245° |
| 2026-05-05 18:22 | 37.28269 | -3.19571 | 36963 ft | 407 kts | 246° |
| 2026-05-05 18:22 | 37.26658 | -3.26287 | 36963 ft | 407 kts | 264° |
| 2026-05-05 18:22 | 37.26698 | -3.29859 | 36965 ft | 408 kts | 275° |
| 2026-05-05 18:23 | 37.27316 | -3.33306 | 36578 ft | 404 kts | 285° |
| 2026-05-05 18:23 | 37.28449 | -3.36539 | 35574 ft | 412 kts | 292° |
| 2026-05-05 18:23 | 37.29782 | -3.39747 | 34588 ft | 416 kts | 292° |
| 2026-05-05 18:23 | 37.31124 | -3.42973 | 33624 ft | 418 kts | 292° |
| 2026-05-05 18:24 | 37.32431 | -3.46252 | 32527 ft | 419 kts | 289° |
| 2026-05-05 18:24 | 37.33315 | -3.49706 | 31693 ft | 410 kts | 278° |
| 2026-05-05 18:24 | 37.33529 | -3.53190 | 30955 ft | 402 kts | 266° |
| 2026-05-05 18:24 | 37.33083 | -3.56630 | 30252 ft | 397 kts | 254° |
| 2026-05-05 18:25 | 37.32021 | -3.59827 | 29473 ft | 396 kts | 243° |
| 2026-05-05 18:25 | 37.31004 | -3.61745 | 28933 ft | 397 kts | 234° |
| 2026-05-05 18:25 | 37.28304 | -3.64920 | 27896 ft | 400 kts | 219° |
| 2026-05-05 18:25 | 37.25856 | -3.66539 | 27133 ft | 405 kts | 206° |
| 2026-05-05 18:26 | 37.23133 | -3.67523 | 26405 ft | 408 kts | 198° |
| 2026-05-05 18:26 | 37.20334 | -3.68216 | 25697 ft | 406 kts | 196° |
| 2026-05-05 18:26 | 37.17604 | -3.68868 | 24996 ft | 403 kts | 196° |
| 2026-05-05 18:26 | 37.14859 | -3.69551 | 24348 ft | 399 kts | 196° |
| 2026-05-05 18:27 | 37.12141 | -3.70247 | 23753 ft | 395 kts | 196° |
| 2026-05-05 18:27 | 37.09458 | -3.70943 | 23125 ft | 391 kts | 196° |
| 2026-05-05 18:27 | 37.06842 | -3.71624 | 22529 ft | 385 kts | 196° |
| 2026-05-05 18:27 | 37.04237 | -3.72305 | 21952 ft | 379 kts | 196° |
| 2026-05-05 18:28 | 36.99151 | -3.73633 | 21034 ft | 363 kts | 196° |
| 2026-05-05 18:28 | 36.96697 | -3.74271 | 20933 ft | 358 kts | 196° |
| 2026-05-05 18:28 | 36.94261 | -3.74910 | 20924 ft | 357 kts | 197° |
| 2026-05-05 18:29 | 36.91829 | -3.75548 | 20917 ft | 357 kts | 196° |
| 2026-05-05 18:29 | 36.89425 | -3.76174 | 20765 ft | 354 kts | 196° |
| 2026-05-05 18:29 | 36.86998 | -3.76807 | 19977 ft | 358 kts | 196° |
| 2026-05-05 18:29 | 36.84534 | -3.77453 | 19099 ft | 364 kts | 196° |
| 2026-05-05 18:30 | 36.82025 | -3.78108 | 18327 ft | 367 kts | 196° |
| 2026-05-05 18:30 | 36.79566 | -3.78746 | 17652 ft | 364 kts | 196° |
| 2026-05-05 18:30 | 36.77083 | -3.79389 | 17023 ft | 360 kts | 196° |
| 2026-05-05 18:30 | 36.74627 | -3.80025 | 16438 ft | 356 kts | 196° |
| 2026-05-05 18:31 | 36.72287 | -3.80788 | 15946 ft | 346 kts | 205° |
| 2026-05-05 18:31 | 36.70279 | -3.82307 | 15514 ft | 332 kts | 225° |
| 2026-05-05 18:31 | 36.68771 | -3.84427 | 15132 ft | 322 kts | 234° |
| 2026-05-05 18:31 | 36.67428 | -3.86615 | 14727 ft | 321 kts | 235° |
| 2026-05-05 18:32 | 36.66068 | -3.88833 | 14305 ft | 322 kts | 234° |
| 2026-05-05 18:32 | 36.64693 | -3.91047 | 13887 ft | 323 kts | 234° |
| 2026-05-05 18:32 | 36.63501 | -3.92954 | 13514 ft | 324 kts | 234° |
| 2026-05-05 18:33 | 36.62583 | -3.94414 | 13223 ft | 323 kts | 234° |
| 2026-05-05 18:33 | 36.61195 | -3.96631 | 12755 ft | 322 kts | 236° |
| 2026-05-05 18:33 | 36.60222 | -3.99072 | 12397 ft | 309 kts | 258° |
| 2026-05-05 18:33 | 36.59980 | -4.01666 | 12198 ft | 295 kts | 265° |
| 2026-05-05 18:34 | 36.59845 | -4.04164 | 12033 ft | 281 kts | 268° |
| 2026-05-05 18:34 | 36.60131 | -4.06466 | 11869 ft | 269 kts | 291° |
| 2026-05-05 18:34 | 36.61155 | -4.08371 | 11679 ft | 262 kts | 308° |
| 2026-05-05 18:34 | 36.62292 | -4.10188 | 11204 ft | 276 kts | 296° |
| 2026-05-05 18:35 | 36.62840 | -4.12460 | 10704 ft | 275 kts | 274° |
| 2026-05-05 18:35 | 36.62609 | -4.14804 | 10222 ft | 275 kts | 252° |
| 2026-05-05 18:35 | 36.61657 | -4.16861 | 9733 ft | 278 kts | 230° |
| 2026-05-05 18:35 | 36.60116 | -4.18308 | 9198 ft | 285 kts | 208° |
| 2026-05-05 18:36 | 36.58167 | -4.18896 | 8663 ft | 293 kts | 185° |
| 2026-05-05 18:36 | 36.56147 | -4.18431 | 8119 ft | 301 kts | 160° |
| 2026-05-05 18:36 | 36.54424 | -4.16943 | 7590 ft | 303 kts | 134° |
| 2026-05-05 18:36 | 36.53132 | -4.14898 | 7141 ft | 297 kts | 126° |
| 2026-05-05 18:37 | 36.51908 | -4.12920 | 6895 ft | 283 kts | 130° |
| 2026-05-05 18:37 | 36.50668 | -4.11107 | 6944 ft | 264 kts | 132° |
| 2026-05-05 18:37 | 36.49485 | -4.09426 | 7035 ft | 256 kts | 133° |
| 2026-05-05 18:37 | 36.48337 | -4.07813 | 6953 ft | 248 kts | 132° |
| 2026-05-05 18:38 | 36.47693 | -4.06911 | 6834 ft | 253 kts | 133° |
| 2026-05-05 18:38 | 36.47613 | -4.06799 | 6813 ft | 254 kts | 133° |
| 2026-05-05 18:39 | 36.46796 | -4.05651 | 6638 ft | 253 kts | 132° |
| 2026-05-05 18:39 | 36.46013 | -4.04557 | 6422 ft | 250 kts | 132° |
| 2026-05-05 18:39 | 36.44860 | -4.02956 | 6180 ft | 245 kts | 132° |
| 2026-05-05 18:39 | 36.43716 | -4.01382 | 5997 ft | 245 kts | 132° |
| 2026-05-05 18:40 | 36.42555 | -3.99796 | 5834 ft | 248 kts | 132° |
| 2026-05-05 18:40 | 36.41390 | -3.98220 | 5688 ft | 246 kts | 132° |
| 2026-05-05 18:40 | 36.40234 | -3.96660 | 5539 ft | 245 kts | 132° |
| 2026-05-05 18:40 | 36.39074 | -3.95106 | 5390 ft | 251 kts | 132° |
| 2026-05-05 18:41 | 36.37881 | -3.93521 | 5249 ft | 250 kts | 132° |
| 2026-05-05 18:41 | 36.36704 | -3.91963 | 5103 ft | 245 kts | 132° |
| 2026-05-05 18:41 | 36.35457 | -3.90534 | 4974 ft | 242 kts | 144° |
| 2026-05-05 18:41 | 36.33916 | -3.89627 | 4952 ft | 248 kts | 170° |
| 2026-05-05 18:42 | 36.32252 | -3.89652 | 4963 ft | 239 kts | 198° |
| 2026-05-05 18:42 | 36.30817 | -3.90549 | 4974 ft | 231 kts | 226° |
| 2026-05-05 18:42 | 36.29841 | -3.92073 | 4981 ft | 224 kts | 249° |
| 2026-05-05 18:42 | 36.29478 | -3.93921 | 5046 ft | 220 kts | 271° |
| 2026-05-05 18:43 | 36.29733 | -3.95734 | 5034 ft | 211 kts | 292° |
| 2026-05-05 18:43 | 36.30479 | -3.97267 | 5013 ft | 206 kts | 310° |
| 2026-05-05 18:43 | 36.31437 | -3.98631 | 5004 ft | 212 kts | 312° |
| 2026-05-05 18:43 | 36.32404 | -4.00020 | 4992 ft | 212 kts | 311° |
| 2026-05-05 18:44 | 36.33352 | -4.01402 | 4991 ft | 207 kts | 312° |
| 2026-05-05 18:44 | 36.34267 | -4.02745 | 4987 ft | 208 kts | 311° |
| 2026-05-05 18:44 | 36.35223 | -4.04141 | 4991 ft | 214 kts | 311° |
| 2026-05-05 18:44 | 36.36206 | -4.05585 | 4992 ft | 218 kts | 311° |
| 2026-05-05 18:45 | 36.37176 | -4.07015 | 4950 ft | 217 kts | 311° |
| 2026-05-05 18:45 | 36.38135 | -4.08427 | 4753 ft | 208 kts | 311° |
| 2026-05-05 18:45 | 36.39050 | -4.09780 | 4652 ft | 206 kts | 311° |
| 2026-05-05 18:45 | 36.40005 | -4.11190 | 4723 ft | 217 kts | 311° |
| 2026-05-05 18:46 | 36.40978 | -4.12619 | 4695 ft | 216 kts | 311° |
| 2026-05-05 18:46 | 36.41944 | -4.14044 | 4723 ft | 212 kts | 311° |
| 2026-05-05 18:46 | 36.42902 | -4.15461 | 4695 ft | 217 kts | 311° |
| 2026-05-05 18:46 | 36.43847 | -4.16844 | 4628 ft | 204 kts | 311° |
| 2026-05-05 18:47 | 36.44752 | -4.18170 | 4583 ft | 206 kts | 311° |
| 2026-05-05 18:47 | 36.45678 | -4.19548 | 4664 ft | 209 kts | 311° |
| 2026-05-05 18:47 | 36.46598 | -4.20906 | 4622 ft | 206 kts | 311° |
| 2026-05-05 18:47 | 36.47539 | -4.22239 | 4369 ft | 202 kts | 313° |
| 2026-05-05 18:48 | 36.48479 | -4.23535 | 4107 ft | 200 kts | 313° |
| 2026-05-05 18:48 | 36.49408 | -4.24816 | 3870 ft | 197 kts | 313° |
| 2026-05-05 18:48 | 36.50300 | -4.26053 | 3619 ft | 193 kts | 312° |
| 2026-05-05 18:48 | 36.51225 | -4.27331 | 3388 ft | 197 kts | 313° |
| 2026-05-05 18:49 | 36.52138 | -4.28597 | 3081 ft | 196 kts | 312° |
| 2026-05-05 18:49 | 36.53062 | -4.29866 | 2949 ft | 200 kts | 313° |
| 2026-05-05 18:49 | 36.54007 | -4.31172 | 2955 ft | 204 kts | 313° |
| 2026-05-05 18:49 | 36.54936 | -4.32462 | 2595 ft | 199 kts | 312° |
| 2026-05-05 18:50 | 36.55839 | -4.33744 | 2201 ft | 200 kts | 311° |
| 2026-05-05 18:50 | 36.56750 | -4.35025 | 2012 ft | 194 kts | 311° |
| 2026-05-05 18:50 | 36.57665 | -4.36302 | 1979 ft | 198 kts | 311° |
| 2026-05-05 18:50 | 36.58570 | -4.37554 | 1982 ft | 193 kts | 311° |
| 2026-05-05 18:51 | 36.59468 | -4.38806 | 1983 ft | 194 kts | 311° |
| 2026-05-05 18:51 | 36.60390 | -4.40090 | 1989 ft | 199 kts | 310° |
| 2026-05-05 18:51 | 36.61297 | -4.41360 | 1992 ft | 195 kts | 310° |
| 2026-05-05 18:51 | 36.62213 | -4.42592 | 1989 ft | 190 kts | 313° |
| 2026-05-05 18:52 | 36.63055 | -4.43673 | 2011 ft | 152 kts | 313° |
| 2026-05-05 18:52 | 36.63748 | -4.44554 | 1532 ft | 143 kts | 311° |
| 2026-05-05 18:52 | 36.64437 | -4.45432 | 996 ft | 137 kts | 307° |
| 2026-05-05 18:52 | 36.64977 | -4.46313 | 603 ft | 125 kts | 305° |
| 2026-05-05 18:53 | 36.65518 | -4.47173 | 312 ft | 128 kts | 311° |
| 2026-05-05 18:53 | 36.66094 | -4.47960 | 201 ft | 122 kts | 314° |
| 2026-05-05 18:53 | 36.66656 | -4.48739 | 53 ft | 123 kts | 313° |
| 2026-05-05 18:53 | 36.67171 | -4.49461 | 52 ft | 91 kts | 311° |
| 2026-05-05 18:54 | 36.67399 | -4.49784 | 54 ft | 59 kts | 311° |
| 2026-05-05 18:54 | 36.67654 | -4.50125 | 59 ft | 33 kts | 320° |
| 2026-05-05 18:54 | 36.67762 | -4.50203 | 56 ft | 25 kts | 339° |
| 2026-05-05 18:54 | 36.67889 | -4.50222 | 52 ft | 15 kts | 75° |
| 2026-05-05 18:55 | 36.67867 | -4.50141 | 50 ft | 7 kts | 127° |
| 2026-05-05 18:55 | 36.67843 | -4.50105 | 49 ft | 9 kts | 131° |
| 2026-05-05 18:55 | 36.67796 | -4.50040 | 50 ft | 12 kts | 131° |
| 2026-05-05 18:55 | 36.67718 | -4.49927 | 48 ft | 13 kts | 116° |
| 2026-05-05 18:56 | 36.67738 | -4.49883 | 48 ft | 9 kts | 35° |
| 2026-05-05 18:56 | 36.67785 | -4.49857 | 48 ft | 8 kts | 24° |
| 2026-05-05 18:56 | 36.67838 | -4.49810 | 47 ft | 11 kts | 41° |
| 2026-05-05 18:56 | 36.67900 | -4.49742 | 47 ft | 13 kts | 41° |
| 2026-05-05 18:57 | 36.67959 | -4.49676 | 47 ft | 12 kts | 41° |
| 2026-05-05 18:57 | 36.68011 | -4.49617 | 47 ft | 10 kts | 52° |
| 2026-05-05 18:57 | 36.68020 | -4.49564 | 47 ft | 4 kts | 118° |
| 2026-05-05 18:57 | 36.67995 | -4.49528 | 47 ft | 7 kts | 131° |
| 2026-05-05 18:58 | 36.67958 | -4.49474 | 47 ft | 9 kts | 131° |
| 2026-05-05 18:58 | 36.67919 | -4.49424 | 47 ft | 6 kts | 160° |
| 2026-05-05 18:58 | 36.67876 | -4.49449 | 47 ft | 8 kts | 213° |
| 2026-05-05 18:58 | 36.67869 | -4.49454 | 47 ft | 0 kts | 213° |
| 2026-05-05 18:59 | 36.67869 | -4.49455 | 47 ft | 1 kts | 213° |
| 2026-05-05 18:59 | 36.67867 | -4.49456 | 47 ft | 0 kts | 213° |
| 2026-05-05 19:12 | 36.67868 | -4.49456 | 47 ft | 0 kts | 213° |